createdAt,value
2024-05-09T00:00:39.271Z,1.92
2024-05-09T00:03:42.861Z,1.92
2024-05-09T00:06:44.749Z,1.90
2024-05-09T00:09:48.176Z,1.80
2024-05-09T00:12:50.002Z,1.80
2024-05-09T00:15:51.928Z,1.70
2024-05-09T00:18:54.335Z,1.83
2024-05-09T00:21:56.166Z,1.80
2024-05-09T00:24:57.961Z,1.98
2024-05-09T00:27:59.857Z,1.90
2024-05-09T00:31:03.040Z,1.90
2024-05-09T00:34:05.101Z,2.13
2024-05-09T00:37:07.065Z,1.95
2024-05-09T00:40:18.223Z,2.10
2024-05-09T00:43:24.649Z,2.00
2024-05-09T00:46:26.586Z,2.00
2024-05-09T00:49:28.775Z,2.10
2024-05-09T00:52:30.910Z,2.05
2024-05-09T00:55:33.957Z,1.95
2024-05-09T00:58:36.086Z,2.00
2024-05-09T01:01:38.072Z,2.10
2024-05-09T01:04:40.213Z,2.08
2024-05-09T01:07:43.437Z,2.00
2024-05-09T01:10:47.879Z,2.13
2024-05-09T01:13:50.412Z,1.90
2024-05-09T01:16:52.363Z,2.20
2024-05-09T01:19:54.316Z,2.03
2024-05-09T01:22:57.628Z,1.98
2024-05-09T01:25:59.473Z,1.85
2024-05-09T01:29:01.414Z,1.90
2024-05-09T01:32:04.977Z,1.90
2024-05-09T01:35:07.132Z,2.05
2024-05-09T01:38:10.038Z,1.88
2024-05-09T01:41:12.029Z,1.98
2024-05-09T01:44:13.970Z,2.30
2024-05-09T01:47:15.921Z,2.10
2024-05-09T01:50:22.504Z,2.05
2024-05-09T01:53:30.866Z,1.90
2024-05-09T01:56:32.846Z,1.85
2024-05-09T01:59:34.832Z,1.95
2024-05-09T02:02:36.744Z,1.90
2024-05-09T02:05:38.692Z,2.38
2024-05-09T02:08:40.894Z,2.08
2024-05-09T02:11:44.690Z,2.20
2024-05-09T02:14:46.536Z,2.03
2024-05-09T02:17:48.578Z,1.98
2024-05-09T02:20:50.649Z,1.85
2024-05-09T02:23:52.521Z,2.20
2024-05-09T02:26:54.415Z,2.25
2024-05-09T02:29:56.327Z,2.10
2024-05-09T02:32:58.392Z,2.20
2024-05-09T02:36:00.298Z,2.15
2024-05-09T02:39:02.146Z,2.10
2024-05-09T02:42:04.139Z,2.28
2024-05-09T02:45:06.343Z,2.00
2024-05-09T02:48:13.214Z,1.80
2024-05-09T02:51:15.745Z,1.90
2024-05-09T02:54:17.743Z,2.03
2024-05-09T02:57:19.616Z,1.90
2024-05-09T03:00:26.737Z,1.88
2024-05-09T03:03:37.130Z,1.90
2024-05-09T03:06:42.679Z,1.95
2024-05-09T03:09:47.614Z,2.00
2024-05-09T03:12:49.675Z,2.00
2024-05-09T03:15:51.513Z,2.13
2024-05-09T03:18:55.258Z,2.30
2024-05-09T03:21:57.103Z,2.33
2024-05-09T03:24:59.071Z,2.22
2024-05-09T03:28:01.074Z,2.38
2024-05-09T03:31:03.011Z,2.33
2024-05-09T03:34:05.136Z,2.13
2024-05-09T03:37:07.050Z,2.20
2024-05-09T03:40:14.627Z,2.17
2024-05-09T03:43:22.071Z,2.13
2024-05-09T03:46:23.968Z,1.98
2024-05-09T03:49:26.067Z,1.90
2024-05-09T03:52:27.991Z,1.98
2024-05-09T03:55:29.916Z,2.20
2024-05-09T03:58:31.777Z,2.15
2024-05-09T04:01:33.674Z,2.10
2024-05-09T04:04:35.679Z,1.98
2024-05-09T04:07:38.136Z,2.20
2024-05-09T04:10:40.665Z,2.00
2024-05-09T04:13:43.258Z,2.10
2024-05-09T04:16:45.153Z,2.15
2024-05-09T04:19:47.098Z,2.25
2024-05-09T04:22:49.023Z,2.40
2024-05-09T04:25:50.935Z,1.85
2024-05-09T04:28:52.853Z,2.05
2024-05-09T04:31:55.881Z,2.13
2024-05-09T04:34:57.826Z,2.08
2024-05-09T04:38:00.611Z,2.20
2024-05-09T04:41:02.713Z,2.20
2024-05-09T04:44:04.810Z,2.08
2024-05-09T04:47:06.821Z,2.10
2024-05-09T04:50:11.709Z,2.33
2024-05-09T04:53:17.150Z,1.83
2024-05-09T04:56:19.402Z,2.08
2024-05-09T04:59:22.223Z,1.98
2024-05-09T05:02:24.243Z,2.28
2024-05-09T05:05:26.134Z,2.40
2024-05-09T05:08:28.141Z,2.30
2024-05-09T05:11:30.086Z,2.22
2024-05-09T05:14:32.066Z,2.15
2024-05-09T05:17:34.410Z,2.10
2024-05-09T05:20:36.495Z,2.10
2024-05-09T05:23:41.043Z,2.17
2024-05-09T05:26:43.001Z,2.13
2024-05-09T05:29:44.947Z,2.30
2024-05-09T05:32:47.065Z,2.10
2024-05-09T05:35:49.215Z,2.10
2024-05-09T05:38:51.198Z,2.15
2024-05-09T05:41:53.088Z,2.28
2024-05-09T05:44:55.127Z,2.17
2024-05-09T05:47:57.096Z,2.50
2024-05-09T05:51:01.886Z,2.20
2024-05-09T05:54:05.481Z,2.33
2024-05-09T05:57:07.323Z,2.17
2024-05-09T06:00:15.159Z,2.35
2024-05-09T06:03:20.036Z,2.13
2024-05-09T06:06:21.991Z,2.10
2024-05-09T06:09:23.786Z,1.98
2024-05-09T06:12:26.043Z,2.00
2024-05-09T06:15:28.001Z,2.17
2024-05-09T06:18:30.244Z,2.20
2024-05-09T06:21:32.289Z,1.98
2024-05-09T06:24:34.100Z,2.22
2024-05-09T06:27:35.906Z,2.00
2024-05-09T06:30:40.428Z,2.10
2024-05-09T06:33:43.933Z,2.13
2024-05-09T06:36:46.905Z,2.13
2024-05-09T06:39:51.428Z,2.08
2024-05-09T06:42:54.693Z,2.30
2024-05-09T06:45:56.488Z,2.35
2024-05-09T06:49:00.511Z,2.10
2024-05-09T06:52:02.383Z,2.08
2024-05-09T06:55:04.362Z,2.15
2024-05-09T06:58:07.293Z,2.00
2024-05-09T07:01:09.151Z,2.25
2024-05-09T07:04:11.180Z,2.38
2024-05-09T07:07:13.127Z,2.13
2024-05-09T07:10:22.006Z,2.33
2024-05-09T07:13:30.408Z,2.15
2024-05-09T07:16:32.257Z,2.33
2024-05-09T07:19:34.173Z,2.60
2024-05-09T07:22:36.030Z,2.60
2024-05-09T07:25:38.619Z,2.67
2024-05-09T07:28:40.844Z,2.75
2024-05-09T07:31:42.738Z,2.50
2024-05-09T07:34:44.576Z,2.40
2024-05-09T07:37:46.446Z,2.55
2024-05-09T07:40:48.692Z,2.58
2024-05-09T07:43:50.660Z,2.72
2024-05-09T07:48:13.616Z,2.75
2024-05-09T07:53:38.419Z,2.60
2024-05-09T07:56:41.248Z,2.60
2024-05-09T07:59:43.451Z,2.75
2024-05-09T08:02:45.392Z,2.80
2024-05-09T08:05:47.275Z,2.65
2024-05-09T08:08:49.888Z,2.67
2024-05-09T08:11:55.210Z,2.65
2024-05-09T08:14:57.122Z,2.90
2024-05-09T08:18:00.261Z,2.33
2024-05-09T08:21:02.344Z,2.67
2024-05-09T08:24:04.255Z,2.70
2024-05-09T08:27:06.107Z,2.40
2024-05-09T08:30:15.283Z,2.33
2024-05-09T08:33:20.573Z,2.72
2024-05-09T08:36:22.492Z,2.50
2024-05-09T08:39:24.387Z,2.20
2024-05-09T08:42:29.320Z,2.25
2024-05-09T08:45:35.618Z,2.30
2024-05-09T08:48:39.988Z,2.30
2024-05-09T08:51:42.941Z,2.08
2024-05-09T08:54:45.299Z,2.40
2024-05-09T08:57:48.505Z,2.05
2024-05-09T09:00:50.483Z,2.05
2024-05-09T09:03:53.675Z,2.10
2024-05-09T09:06:58.769Z,2.33
2024-05-09T09:13:09.545Z,2.05
2024-05-09T09:16:12.979Z,1.95
2024-05-09T09:19:15.134Z,2.28
2024-05-09T09:22:19.746Z,2.05
2024-05-09T09:25:22.800Z,2.00
2024-05-09T09:28:24.670Z,2.40
2024-05-09T09:31:26.636Z,2.15
2024-05-09T09:34:28.973Z,2.05
2024-05-09T09:37:30.986Z,2.13
2024-05-09T09:40:41.079Z,2.42
2024-05-09T09:43:48.860Z,2.17
2024-05-09T09:46:51.925Z,2.20
2024-05-09T09:49:55.553Z,2.08
2024-05-09T09:52:59.351Z,2.10
2024-05-09T09:56:02.235Z,2.10
2024-05-09T09:59:04.554Z,2.03
2024-05-09T10:02:06.696Z,2.05
2024-05-09T10:05:09.601Z,2.30
2024-05-09T10:08:12.469Z,2.13
2024-05-09T10:11:20.158Z,2.20
2024-05-09T10:14:22.374Z,1.90
2024-05-09T10:17:24.364Z,2.10
2024-05-09T10:20:30.858Z,1.95
2024-05-09T10:23:36.258Z,2.17
2024-05-09T10:26:38.998Z,1.80
2024-05-09T10:29:51.606Z,2.00
2024-05-09T10:32:56.763Z,1.80
2024-05-09T10:36:03.417Z,1.75
2024-05-09T10:39:05.490Z,1.65
2024-05-09T10:42:10.134Z,1.92
2024-05-09T10:45:11.947Z,1.73
2024-05-09T10:48:13.979Z,1.83
2024-05-09T10:51:18.295Z,1.90
2024-05-09T10:54:20.114Z,1.58
2024-05-09T10:57:22.618Z,1.77
2024-05-09T11:00:35.678Z,1.75
2024-05-09T11:03:39.337Z,1.65
2024-05-09T11:06:42.236Z,1.58
2024-05-09T11:09:44.712Z,1.67
2024-05-09T11:12:46.624Z,1.63
2024-05-09T11:15:48.527Z,1.70
2024-05-09T11:18:59.686Z,1.60
2024-05-09T11:22:04.700Z,1.55
2024-05-09T11:25:06.903Z,1.67
2024-05-09T11:28:08.802Z,1.80
2024-05-09T11:31:11.090Z,1.63
2024-05-09T11:34:13.181Z,1.58
2024-05-09T11:37:15.266Z,1.50
2024-05-09T11:40:24.847Z,1.63
2024-05-09T11:43:30.562Z,1.55
2024-05-09T11:46:32.556Z,1.63
2024-05-09T11:49:34.406Z,1.60
2024-05-09T11:52:36.280Z,1.75
2024-05-09T11:55:38.237Z,1.75
2024-05-09T11:58:41.576Z,1.58
2024-05-09T12:01:43.716Z,1.70
2024-05-09T12:04:47.013Z,1.50
2024-05-09T12:07:51.222Z,1.40
2024-05-09T12:10:53.513Z,1.60
2024-05-09T12:13:55.478Z,1.73
2024-05-09T12:16:59.364Z,1.50
2024-05-09T12:20:01.214Z,1.50
2024-05-09T12:23:03.055Z,1.55
2024-05-09T12:26:05.147Z,1.60
2024-05-09T12:29:07.951Z,1.83
2024-05-09T12:32:10.039Z,1.63
2024-05-09T12:35:11.917Z,1.70
2024-05-09T12:38:14.413Z,1.80
2024-05-09T12:41:16.265Z,1.60
2024-05-09T12:44:18.119Z,1.70
2024-05-09T12:47:22.142Z,1.55
2024-05-09T12:50:31.062Z,1.67
2024-05-09T12:53:36.390Z,1.50
2024-05-09T12:56:38.246Z,1.42
2024-05-09T12:59:42.189Z,1.50
2024-05-09T13:02:44.077Z,1.58
2024-05-09T13:05:46.391Z,1.30
2024-05-09T13:08:48.423Z,1.40
2024-05-09T13:11:50.385Z,1.55
2024-05-09T13:14:52.265Z,1.50
2024-05-09T13:17:56.408Z,1.55
2024-05-09T13:21:00.155Z,1.40
2024-05-09T13:24:02.015Z,1.40
2024-05-09T13:27:04.102Z,1.35
2024-05-09T13:30:12.054Z,1.60
2024-05-09T13:33:19.847Z,1.60
2024-05-09T13:36:22.106Z,1.52
2024-05-09T13:39:24.077Z,1.58
2024-05-09T13:42:27.436Z,1.30
2024-05-09T13:45:29.401Z,1.35
2024-05-09T13:48:31.510Z,1.58
2024-05-09T13:51:33.433Z,1.60
2024-05-09T13:54:35.323Z,1.40
2024-05-09T13:57:37.269Z,1.50
2024-05-09T14:00:46.256Z,1.33
2024-05-09T14:03:50.546Z,1.50
2024-05-09T14:06:52.834Z,1.50
2024-05-09T14:09:54.820Z,1.50
2024-05-09T14:12:56.784Z,1.27
2024-05-09T14:15:59.013Z,1.40
2024-05-09T14:19:01.219Z,1.33
2024-05-09T14:22:06.229Z,1.40
2024-05-09T14:25:09.842Z,1.30
2024-05-09T14:28:13.030Z,1.45
2024-05-09T14:31:15.469Z,1.48
2024-05-09T14:34:17.659Z,1.40
2024-05-09T14:37:19.777Z,1.50
2024-05-09T14:40:31.173Z,1.40
2024-05-09T14:43:41.571Z,1.40
2024-05-09T14:46:43.523Z,1.40
2024-05-09T14:49:45.495Z,2.97
2024-05-09T14:52:47.501Z,2.35
2024-05-09T14:55:49.952Z,1.80
2024-05-09T14:58:51.891Z,1.75
2024-05-09T15:01:53.765Z,1.70
2024-05-09T15:04:55.702Z,1.40
2024-05-09T15:07:58.188Z,1.55
2024-05-09T15:11:00.103Z,1.50
2024-05-09T15:14:01.962Z,1.50
2024-05-09T15:17:04.012Z,1.40
2024-05-09T15:20:09.450Z,1.50
2024-05-09T15:23:11.766Z,1.60
2024-05-09T15:26:13.893Z,1.60
2024-05-09T15:29:15.723Z,1.40
2024-05-09T15:32:17.516Z,1.60
2024-05-09T15:35:19.387Z,1.50
2024-05-09T15:38:21.341Z,1.50
2024-05-09T15:41:23.130Z,1.58
2024-05-09T15:44:25.831Z,1.50
2024-05-09T15:47:28.149Z,1.35
2024-05-09T15:50:37.089Z,1.40
2024-05-09T15:53:42.197Z,1.20
2024-05-09T15:56:48.822Z,1.80
2024-05-09T15:59:51.036Z,1.80
2024-05-09T16:02:52.937Z,2.00
2024-05-09T16:05:57.649Z,1.80
2024-05-09T16:08:59.867Z,1.50
2024-05-09T16:12:01.854Z,1.60
2024-05-09T16:15:04.163Z,1.40
2024-05-09T16:18:06.832Z,1.30
2024-05-09T16:21:08.676Z,1.40
2024-05-09T16:24:10.504Z,1.20
2024-05-09T16:27:12.903Z,1.25
2024-05-09T16:30:21.239Z,1.30
2024-05-09T16:33:30.146Z,1.40
2024-05-09T16:36:32.337Z,1.40
2024-05-09T16:39:34.239Z,1.30
2024-05-09T16:42:36.102Z,1.38
2024-05-09T16:45:40.515Z,1.20
2024-05-09T16:48:45.771Z,1.23
2024-05-09T16:51:47.720Z,1.20
2024-05-09T16:54:49.638Z,1.20
2024-05-09T16:57:52.150Z,1.30
2024-05-09T17:00:54.086Z,1.80
2024-05-09T17:03:56.165Z,1.40
2024-05-09T17:06:58.213Z,1.38
2024-05-09T17:10:00.288Z,1.27
2024-05-09T17:13:03.616Z,1.27
2024-05-09T17:16:08.237Z,1.10
2024-05-09T17:19:10.256Z,1.50
2024-05-09T17:22:12.642Z,1.30
2024-05-09T17:25:14.631Z,1.20
2024-05-09T17:28:16.945Z,1.35
2024-05-09T17:31:18.823Z,1.27
2024-05-09T17:34:20.856Z,1.30
2024-05-09T17:37:22.825Z,1.50
2024-05-09T17:40:31.148Z,1.30
2024-05-09T17:43:36.684Z,1.10
2024-05-09T17:46:38.768Z,1.30
2024-05-09T17:49:40.940Z,1.20
2024-05-09T17:52:42.747Z,1.10
2024-05-09T17:55:44.844Z,1.20
2024-05-09T17:58:48.944Z,1.20
2024-05-09T18:01:51.025Z,1.20
2024-05-09T18:04:53.009Z,1.40
2024-05-09T18:07:55.319Z,1.40
2024-05-09T18:10:57.180Z,1.25
2024-05-09T18:13:59.077Z,1.20
2024-05-09T18:17:00.986Z,1.10
2024-05-09T18:20:05.325Z,1.35
2024-05-09T18:23:07.508Z,1.20
2024-05-09T18:26:09.602Z,1.20
2024-05-09T18:29:11.538Z,1.10
2024-05-09T18:32:13.437Z,1.20
2024-05-09T18:35:15.460Z,1.17
2024-05-09T18:38:18.617Z,1.25
2024-05-09T18:41:21.714Z,1.27
2024-05-09T18:44:23.529Z,1.20
2024-05-09T18:47:25.535Z,1.20
2024-05-09T18:50:34.924Z,1.20
2024-05-09T18:53:41.765Z,1.30
2024-05-09T18:56:45.153Z,1.30
2024-05-09T18:59:47.244Z,1.40
2024-05-09T19:02:49.436Z,1.40
2024-05-09T19:05:51.634Z,1.30
2024-05-09T19:08:53.580Z,1.25
2024-05-09T19:11:55.444Z,1.30
2024-05-09T19:14:57.307Z,1.30
2024-05-09T19:17:59.550Z,1.38
2024-05-09T19:21:01.457Z,1.20
2024-05-09T19:24:03.510Z,1.27
2024-05-09T19:27:05.360Z,1.30
2024-05-09T19:30:17.195Z,1.20
2024-05-09T19:33:23.632Z,1.25
2024-05-09T19:36:25.749Z,1.40
2024-05-09T19:39:27.618Z,1.25
2024-05-09T19:42:31.514Z,1.30
2024-05-09T19:45:35.169Z,1.30
2024-05-09T19:48:38.383Z,1.25
2024-05-09T19:51:41.668Z,1.50
2024-05-09T19:54:45.255Z,1.50
2024-05-09T19:57:47.251Z,1.40
2024-05-09T20:00:49.246Z,1.40
2024-05-09T20:03:51.441Z,1.50
2024-05-09T20:06:53.542Z,1.50
2024-05-09T20:09:55.477Z,1.50
2024-05-09T20:12:57.364Z,1.50
2024-05-09T20:16:01.404Z,1.40
2024-05-09T20:19:03.748Z,1.45
2024-05-09T20:22:05.777Z,1.38
2024-05-09T20:25:07.894Z,1.42
2024-05-09T20:28:10.761Z,1.33
2024-05-09T20:31:21.038Z,1.40
2024-05-09T20:34:23.347Z,1.30
2024-05-09T20:37:26.067Z,1.30
2024-05-09T20:40:32.797Z,1.30
2024-05-09T20:43:38.214Z,1.30
2024-05-09T20:46:40.087Z,1.50
2024-05-09T20:49:42.011Z,1.38
2024-05-09T20:52:43.944Z,1.33
2024-05-09T20:55:45.959Z,1.58
2024-05-09T20:58:48.231Z,1.30
2024-05-09T21:01:50.222Z,1.50
2024-05-09T21:04:52.350Z,1.50
2024-05-09T21:07:54.326Z,1.45
2024-05-09T21:10:56.190Z,1.70
2024-05-09T21:13:57.963Z,1.40
2024-05-09T21:17:00.041Z,1.58
2024-05-09T21:20:02.351Z,1.60
2024-05-09T21:23:04.878Z,1.55
2024-05-09T21:26:07.128Z,1.30
2024-05-09T21:29:08.964Z,1.50
2024-05-09T21:32:10.811Z,1.35
2024-05-09T21:35:12.792Z,1.50
2024-05-09T21:38:15.213Z,1.40
2024-05-09T21:41:17.071Z,1.50
2024-05-09T21:44:18.977Z,1.55
2024-05-09T21:47:20.910Z,1.38
2024-05-09T21:50:28.526Z,1.40
2024-05-09T21:53:40.164Z,1.45
2024-05-09T21:56:42.029Z,1.55
2024-05-09T21:59:44.148Z,1.40
2024-05-09T22:02:45.967Z,1.73
2024-05-09T22:05:47.774Z,1.60
2024-05-09T22:08:49.602Z,1.70
2024-05-09T22:11:53.016Z,1.70
2024-05-09T22:14:55.707Z,1.60
2024-05-09T22:17:57.832Z,1.80
2024-05-09T22:20:59.809Z,1.88
2024-05-09T22:24:01.743Z,1.45
2024-05-09T22:27:03.845Z,1.60
2024-05-09T22:30:09.188Z,1.50
2024-05-09T22:33:15.035Z,1.90
2024-05-09T22:36:17.067Z,1.60
2024-05-09T22:39:18.938Z,1.60
2024-05-09T22:42:20.852Z,1.70
2024-05-09T22:45:22.739Z,1.70
2024-05-09T22:48:26.003Z,1.77
2024-05-09T22:51:27.993Z,1.73
2024-05-09T22:54:29.926Z,1.60
2024-05-09T22:57:31.802Z,1.70
2024-05-09T23:00:33.881Z,1.60
2024-05-09T23:03:38.967Z,1.50
2024-05-09T23:06:41.749Z,1.60
2024-05-09T23:09:46.864Z,1.70
2024-05-09T23:12:49.070Z,1.50
2024-05-09T23:15:50.939Z,1.60
2024-05-09T23:18:52.973Z,1.58
2024-05-09T23:21:54.888Z,1.60
2024-05-09T23:24:56.722Z,1.63
2024-05-09T23:27:58.847Z,1.50
2024-05-09T23:31:00.866Z,1.55
2024-05-09T23:34:02.955Z,1.50
2024-05-09T23:37:05.071Z,1.40
2024-05-09T23:40:09.623Z,1.58
2024-05-09T23:43:12.771Z,1.40
2024-05-09T23:46:15.076Z,1.58
2024-05-09T23:49:16.956Z,1.65
2024-05-09T23:52:18.902Z,1.65
2024-05-09T23:55:21.050Z,1.60
2024-05-09T23:58:23.081Z,1.55
